Time;durP1;ratioP1;P1;durP2;ratioP2;P2;SDS_P1;SDS_P2;PMS_P1;PMS_P2;Temp;Humidity;BMP_temperature;BMP_pressure;BME280_temperature;BME280_humidity;BME280_pressure;Samples;Min_cycle;Max_cycle;Signal;HPM_P1;HPM_P2
2023/07/09 00:01:03;;;;;;;1999.90;999.90;;;;;;;20.84;100.00;95750.09;5106512;28;20216;-52
2023/07/09 00:03:28;;;;;;;1999.90;999.90;;;;;;;20.82;100.00;95745.00;5106645;28;20226;-50
2023/07/09 00:05:54;;;;;;;1999.90;999.90;;;;;;;20.82;100.00;95741.44;5105935;28;20214;-51
2023/07/09 00:08:28;;;;;;;1999.90;999.90;;;;;;;20.78;100.00;95738.81;5106006;28;20169;-50
2023/07/09 00:10:57;;;;;;;1999.90;999.90;;;;;;;20.75;100.00;95731.41;5106087;28;20227;-51
2023/07/09 00:13:24;;;;;;;1999.90;999.90;;;;;;;20.73;100.00;95747.75;5106534;28;20169;-52
2023/07/09 00:15:50;;;;;;;1999.90;999.90;;;;;;;20.72;100.00;95746.19;5105947;28;20168;-52
2023/07/09 00:18:15;;;;;;;1999.90;999.90;;;;;;;20.74;100.00;95749.31;5106389;28;20168;-52
2023/07/09 00:20:43;;;;;;;1999.90;999.90;;;;;;;20.70;100.00;95748.69;5105821;28;20168;-52
2023/07/09 00:23:13;;;;;;;1999.90;999.90;;;;;;;20.68;100.00;95740.03;5106252;28;20203;-48
2023/07/09 00:25:41;;;;;;;1999.90;999.90;;;;;;;20.68;100.00;95742.81;5105901;28;20180;-53
2023/07/09 00:28:12;;;;;;;1999.90;999.90;;;;;;;20.68;100.00;95751.13;5106437;28;20164;-52
2023/07/09 00:30:37;;;;;;;1999.90;999.90;;;;;;;20.68;100.00;95748.34;5106341;28;20186;-52
2023/07/09 00:33:04;;;;;;;1999.90;999.90;;;;;;;20.65;100.00;95751.28;5105385;28;20168;-54
2023/07/09 00:35:30;;;;;;;1999.90;999.90;;;;;;;20.58;100.00;95746.78;5106007;28;20169;-51
2023/07/09 00:38:00;;;;;;;1999.90;999.90;;;;;;;20.52;100.00;95758.97;5106018;28;20214;-50
2023/07/09 00:40:26;;;;;;;1999.90;999.90;;;;;;;20.47;100.00;95757.56;5105600;28;20169;-52
2023/07/09 00:42:54;;;;;;;1999.90;999.90;;;;;;;20.38;100.00;95756.75;5105264;28;20200;-51
2023/07/09 00:45:23;;;;;;;1999.90;999.90;;;;;;;20.35;100.00;95754.88;5105926;28;20175;-52
2023/07/09 00:48:13;;;;;;;1999.90;999.90;;;;;;;20.31;100.00;95763.38;5105830;28;20225;-53
2023/07/09 00:50:52;;;;;;;1999.90;999.90;;;;;;;20.27;100.00;95757.19;5105894;28;20165;-51
2023/07/09 00:53:29;;;;;;;1999.90;999.90;;;;;;;20.24;100.00;95766.41;5105717;28;20157;-53
2023/07/09 00:56:09;;;;;;;1999.90;999.90;;;;;;;20.21;100.00;95764.56;5105875;28;20184;-52
2023/07/09 00:58:37;;;;;;;1999.90;999.90;;;;;;;20.18;100.00;95762.69;5105337;28;20182;-50
2023/07/09 01:01:09;;;;;;;1999.90;999.90;;;;;;;20.18;100.00;95756.38;5105326;28;20285;-53
2023/07/09 01:03:41;;;;;;;1999.90;999.90;;;;;;;20.17;100.00;95761.16;5105622;28;20207;-53
2023/07/09 01:06:06;;;;;;;1999.90;999.90;;;;;;;20.15;100.00;95757.28;5105570;28;20179;-50
2023/07/09 01:08:35;;;;;;;1999.90;999.90;;;;;;;20.14;100.00;95759.28;5104956;28;20173;-50
2023/07/09 01:11:01;;;;;;;1999.90;999.90;;;;;;;20.13;100.00;95766.06;5105429;28;20180;-49
2023/07/09 01:13:27;;;;;;;1999.90;999.90;;;;;;;20.12;100.00;95758.97;5105009;28;20239;-54
2023/07/09 01:15:53;;;;;;;1999.90;999.90;;;;;;;20.10;100.00;95755.09;5105287;28;20172;-54
2023/07/09 01:18:20;;;;;;;1999.90;999.90;;;;;;;20.05;100.00;95758.44;5105362;28;20194;-52
2023/07/09 01:20:46;;;;;;;1999.90;999.90;;;;;;;20.01;100.00;95763.34;5104716;28;20184;-52
2023/07/09 01:23:11;;;;;;;1999.90;999.90;;;;;;;19.97;100.00;95769.06;5105205;28;20200;-52
2023/07/09 01:25:44;;;;;;;1999.90;999.90;;;;;;;19.96;100.00;95767.50;5104613;28;20177;-52
2023/07/09 01:28:10;;;;;;;1999.90;999.90;;;;;;;19.93;100.00;95759.31;5104671;28;20198;-51
2023/07/09 01:30:38;;;;;;;1999.90;999.90;;;;;;;19.90;100.00;95763.78;5105098;28;20172;-50
2023/07/09 01:33:06;;;;;;;1999.90;999.90;;;;;;;19.90;100.00;95769.31;5105064;28;20196;-53
2023/07/09 01:35:33;;;;;;;1999.90;999.90;;;;;;;19.82;100.00;95773.59;5104468;28;20240;-52
2023/07/09 01:37:58;;;;;;;1999.90;999.90;;;;;;;19.80;100.00;95770.50;5104555;28;20206;-53
2023/07/09 01:40:27;;;;;;;1999.90;999.90;;;;;;;19.78;100.00;95777.72;5104895;28;20176;-52
2023/07/09 01:42:53;;;;;;;1999.90;999.90;;;;;;;19.80;100.00;95776.03;5104171;28;20211;-53
2023/07/09 01:45:20;;;;;;;1999.90;999.90;;;;;;;19.79;100.00;95768.94;5104132;28;20177;-50
2023/07/09 01:47:46;;;;;;;1999.90;999.90;;;;;;;19.80;100.00;95767.72;5104901;28;20175;-54
2023/07/09 01:50:11;;;;;;;1999.90;999.90;;;;;;;19.79;100.00;95773.72;5104250;28;20172;-53
2023/07/09 01:52:41;;;;;;;1999.90;999.90;;;;;;;19.75;100.00;95767.53;5103992;28;20198;-52
2023/07/09 01:55:08;;;;;;;1999.90;999.90;;;;;;;19.74;100.00;95766.00;5104130;28;20180;-52
2023/07/09 01:57:33;;;;;;;1999.90;999.90;;;;;;;19.77;100.00;95770.63;5104177;28;20179;-52
2023/07/09 02:00:01;;;;;;;1999.90;999.90;;;;;;;19.76;100.00;95778.16;5103715;28;20216;-54
2023/07/09 02:02:26;;;;;;;1999.90;999.90;;;;;;;19.76;100.00;95769.84;5103749;28;20287;-53
2023/07/09 02:04:54;;;;;;;1999.90;999.90;;;;;;;19.73;100.00;95770.75;5104004;28;20172;-52
2023/07/09 02:07:21;;;;;;;1999.90;999.90;;;;;;;19.70;100.00;95766.13;5104027;28;20179;-53
2023/07/09 02:09:47;;;;;;;1999.90;999.90;;;;;;;19.68;100.00;95774.13;5103918;28;20236;-52
2023/07/09 02:12:14;;;;;;;1999.90;999.90;;;;;;;19.68;100.00;95774.13;5104594;28;20187;-51
2023/07/09 02:14:40;;;;;;;1999.90;999.90;;;;;;;19.69;100.00;95775.66;5103995;28;20211;-53
2023/07/09 02:17:05;;;;;;;1999.90;999.90;;;;;;;19.68;100.00;95770.56;5103705;28;20173;-51
2023/07/09 02:19:31;;;;;;;1999.90;999.90;;;;;;;19.64;100.00;95770.72;5104416;28;20316;-54
2023/07/09 02:21:57;;;;;;;1999.90;999.90;;;;;;;19.64;100.00;95767.16;5103900;28;20207;-53
2023/07/09 02:24:24;;;;;;;1999.90;999.90;;;;;;;19.62;100.00;95764.09;5103451;28;20224;-53
2023/07/09 02:26:51;;;;;;;1999.90;999.90;;;;;;;19.61;100.00;95763.28;5103866;28;20176;-52
2023/07/09 02:29:16;;;;;;;1999.90;999.90;;;;;;;19.57;100.00;95762.66;5104415;28;20183;-50
2023/07/09 02:31:42;;;;;;;1999.90;999.90;;;;;;;19.53;100.00;95762.03;5103568;28;20200;-55
2023/07/09 02:34:08;;;;;;;1999.90;999.90;;;;;;;19.51;100.00;95760.94;5103729;28;20172;-50
2023/07/09 02:36:33;;;;;;;1999.90;999.90;;;;;;;19.49;100.00;95766.91;5103896;28;20214;-54
2023/07/09 02:38:59;;;;;;;1999.90;999.90;;;;;;;19.44;100.00;95770.25;5104572;28;20173;-51
2023/07/09 02:41:24;;;;;;;1999.90;999.90;;;;;;;19.41;100.00;95757.31;5103631;28;20215;-51
2023/07/09 02:43:49;;;;;;;1999.90;999.90;;;;;;;19.39;100.00;95765.31;5103644;28;20205;-54
2023/07/09 02:46:15;;;;;;;1999.90;999.90;;;;;;;19.33;100.00;95756.00;5104030;28;20184;-53
2023/07/09 02:48:40;;;;;;;1999.90;999.90;;;;;;;19.31;100.00;95756.47;5103722;28;20173;-52
2023/07/09 02:51:05;;;;;;;1999.90;999.90;;;;;;;19.30;100.00;95754.13;5104249;28;20172;-53
2023/07/09 02:53:31;;;;;;;1999.90;999.90;;;;;;;19.29;100.00;95758.16;5103348;28;20173;-49
2023/07/09 02:55:56;;;;;;;1999.90;999.90;;;;;;;19.25;100.00;95763.03;5104363;28;20168;-52
2023/07/09 02:58:21;;;;;;;1999.90;999.90;;;;;;;19.23;100.00;95766.22;5103340;28;20173;-50
2023/07/09 03:00:52;;;;;;;1999.90;999.90;;;;;;;19.19;100.00;95765.59;5103122;28;20270;-54
2023/07/09 03:03:19;;;;;;;1999.90;999.90;;;;;;;19.19;100.00;95770.34;5103442;28;20253;-54
2023/07/09 03:05:46;;;;;;;1999.90;999.90;;;;;;;19.16;100.00;95762.97;5103583;28;20176;-54
2023/07/09 03:08:11;;;;;;;1999.90;999.90;;;;;;;19.14;100.00;95754.31;5103578;28;20172;-50
2023/07/09 03:10:36;;;;;;;1999.90;999.90;;;;;;;19.11;100.00;95763.50;5103637;28;20173;-53
2023/07/09 03:13:02;;;;;;;1999.90;999.90;;;;;;;19.10;100.00;95767.50;5103419;28;20251;-54
2023/07/09 03:15:27;;;;;;;1999.90;999.90;;;;;;;19.09;100.00;95757.66;5103965;28;20176;-54
2023/07/09 03:17:52;;;;;;;1999.90;999.90;;;;;;;19.07;100.00;95769.19;5103106;28;20214;-53
2023/07/09 03:20:17;;;;;;;1999.90;999.90;;;;;;;19.08;100.00;95753.31;5103455;28;20176;-52
2023/07/09 03:22:43;;;;;;;1999.90;999.90;;;;;;;19.08;100.00;95764.41;5107691;28;20203;-53
2023/07/09 03:25:08;;;;;;;1999.90;999.90;;;;;;;19.07;100.00;95763.66;5107569;28;20172;-52
2023/07/09 03:27:33;;;;;;;1999.90;999.90;;;;;;;19.06;100.00;95767.63;5107686;28;20214;-52
2023/07/09 03:30:00;;;;;;;1999.90;999.90;;;;;;;19.06;100.00;95775.16;5106619;28;20169;-54
2023/07/09 03:32:25;;;;;;;1999.90;999.90;;;;;;;19.04;100.00;95764.53;5106926;28;20176;-50
2023/07/09 03:34:52;;;;;;;1999.90;999.90;;;;;;;19.06;100.00;95769.63;5107288;28;20171;-54
2023/07/09 03:37:18;;;;;;;1999.90;999.90;;;;;;;19.10;100.00;95773.03;5106395;28;20177;-54
2023/07/09 03:39:45;;;;;;;1999.90;999.90;;;;;;;19.16;100.00;95771.25;5106614;28;20218;-53
2023/07/09 03:42:11;;;;;;;1999.90;999.90;;;;;;;19.29;100.00;95774.75;5107106;28;20168;-52
2023/07/09 03:44:36;;;;;;;1999.90;999.90;;;;;;;19.41;100.00;95779.47;5106653;28;20195;-51
2023/07/09 03:47:01;;;;;;;1999.90;999.90;;;;;;;19.53;100.00;95778.66;5106513;28;20178;-52
2023/07/09 03:49:27;;;;;;;1999.90;999.90;;;;;;;19.67;100.00;95786.44;5107333;28;20183;-54
2023/07/09 03:51:52;;;;;;;1999.90;999.90;;;;;;;19.79;100.00;95785.59;5106395;28;20215;-55
2023/07/09 03:54:17;;;;;;;1999.90;999.90;;;;;;;19.98;100.00;95795.53;5106774;28;20172;-55
2023/07/09 03:56:43;;;;;;;1999.90;999.90;;;;;;;20.11;100.00;95799.03;5106312;28;20172;-54
2023/07/09 03:59:08;;;;;;;1999.90;999.90;;;;;;;20.33;100.00;95797.00;5105826;28;20228;-55
2023/07/09 04:01:33;;;;;;;1999.90;999.90;;;;;;;20.49;100.00;95799.50;5106774;28;20168;-54
2023/07/09 04:03:59;;;;;;;1999.90;999.90;;;;;;;20.68;100.00;95814.22;5106713;28;20207;-51
2023/07/09 04:06:24;;;;;;;1999.90;999.90;;;;;;;20.79;100.00;95818.09;5105938;28;20176;-51
2023/07/09 04:08:49;;;;;;;1999.90;999.90;;;;;;;20.93;100.00;95812.00;5106437;28;20164;-57
2023/07/09 04:11:15;;;;;;;1999.90;999.90;;;;;;;21.10;100.00;95813.25;5106303;28;20173;-54
2023/07/09 04:13:40;;;;;;;1999.90;999.90;;;;;;;21.32;100.00;95816.69;5106204;28;20161;-54
2023/07/09 04:16:05;;;;;;;1999.90;999.90;;;;;;;21.55;100.00;95818.84;5106065;28;20172;-52
2023/07/09 04:18:30;;;;;;;1999.90;999.90;;;;;;;21.75;100.00;95819.16;5106611;28;20218;-54
2023/07/09 04:20:56;;;;;;;1999.90;999.90;;;;;;;21.90;100.00;95824.84;5105906;28;20195;-54
2023/07/09 04:23:21;;;;;;;1999.90;999.90;;;;;;;22.04;100.00;95827.75;5105862;28;20201;-51
2023/07/09 04:25:47;;;;;;;1999.90;999.90;;;;;;;22.16;100.00;95835.16;5106329;28;20200;-54
2023/07/09 04:28:13;;;;;;;1999.90;999.90;;;;;;;22.11;100.00;95838.56;5105472;28;20196;-50
2023/07/09 04:30:38;;;;;;;1999.90;999.90;;;;;;;22.19;100.00;95839.78;5105685;28;20184;-54
2023/07/09 04:33:04;;;;;;;1999.90;999.90;;;;;;;22.19;100.00;95842.56;5105667;28;20215;-52
2023/07/09 04:35:29;;;;;;;1999.90;999.90;;;;;;;22.37;100.00;95841.75;5105661;28;20177;-52
2023/07/09 04:37:54;;;;;;;1999.90;999.90;;;;;;;22.60;100.00;95840.28;5105452;28;20176;-51
2023/07/09 04:40:20;;;;;;;1999.90;999.90;;;;;;;22.83;100.00;95836.81;5105514;28;20179;-52
2023/07/09 04:42:45;;;;;;;1999.90;999.90;;;;;;;23.17;100.00;95837.06;5105773;28;20220;-52
2023/07/09 04:45:12;;;;;;;1999.90;999.90;;;;;;;23.53;100.00;95844.44;5105390;28;20177;-51
2023/07/09 04:47:38;;;;;;;1999.90;999.90;;;;;;;23.95;100.00;95847.81;5105177;28;20176;-53
2023/07/09 04:50:07;;;;;;;1999.90;999.90;;;;;;;24.07;100.00;95844.75;5089258;28;20192;-52
2023/07/09 04:52:32;;;;;;;1999.90;999.90;;;;;;;24.03;100.00;95860.13;5105099;28;20207;-50
2023/07/09 04:54:58;;;;;;;1999.90;999.90;;;;;;;23.93;100.00;95847.53;5105508;28;20184;-52
2023/07/09 04:57:24;;;;;;;1999.90;999.90;;;;;;;24.11;100.00;95845.31;5105766;28;20188;-50
2023/07/09 04:59:49;;;;;;;1999.90;999.90;;;;;;;24.39;100.00;95851.41;5104761;28;20244;-51
2023/07/09 05:02:15;;;;;;;1999.90;999.90;;;;;;;24.69;100.00;95842.53;5105044;28;20184;-53
2023/07/09 05:04:40;;;;;;;1999.90;999.90;;;;;;;25.09;100.00;95844.66;5104796;28;20169;-51
2023/07/09 05:07:06;;;;;;;1999.90;999.90;;;;;;;25.37;100.00;95851.44;5105593;28;20196;-52
2023/07/09 05:09:32;;;;;;;1999.90;999.90;;;;;;;25.78;100.00;95850.16;5105500;28;20168;-49
2023/07/09 05:11:57;;;;;;;1999.90;999.90;;;;;;;26.08;100.00;95848.75;5104905;28;20180;-48
2023/07/09 05:14:23;;;;;;;1999.90;999.90;;;;;;;26.76;100.00;95851.69;5104975;28;20229;-49
2023/07/09 05:16:48;;;;;;;1999.90;999.90;;;;;;;27.00;100.00;95849.31;5104925;28;20168;-47
2023/07/09 05:19:14;;;;;;;1999.90;999.90;;;;;;;27.56;100.00;95849.16;5105287;28;20244;-51
2023/07/09 05:21:39;;;;;;;1999.90;999.90;;;;;;;27.85;100.00;95851.63;5105312;28;20177;-49
2023/07/09 05:24:05;;;;;;;1999.90;999.90;;;;;;;28.12;100.00;95855.78;5104907;28;20220;-48
2023/07/09 05:26:31;;;;;;;1999.90;999.90;;;;;;;28.36;100.00;95858.13;5104700;28;20175;-48
2023/07/09 05:28:57;;;;;;;1999.90;999.90;;;;;;;28.58;100.00;95858.19;5104603;28;20164;-55
2023/07/09 05:31:22;;;;;;;1999.90;999.90;;;;;;;28.87;100.00;95863.31;5105085;28;20210;-50
2023/07/09 05:33:48;;;;;;;1999.90;999.90;;;;;;;29.15;100.00;95864.06;5105023;28;20235;-49
2023/07/09 05:36:15;;;;;;;1999.90;999.90;;;;;;;29.70;100.00;95869.59;5104548;28;20168;-50
2023/07/09 05:38:43;;;;;;;1999.90;999.90;;;;;;;30.10;100.00;95866.88;5105238;28;20192;-53
2023/07/09 05:41:08;;;;;;;1999.90;999.90;;;;;;;30.25;100.00;95869.38;5104732;28;20191;-52
2023/07/09 05:43:34;;;;;;;1999.90;999.90;;;;;;;30.61;97.24;95870.94;5104233;28;20263;-47
2023/07/09 05:46:02;;;;;;;1999.90;999.90;;;;;;;30.98;92.25;95879.66;5103548;28;20173;-52
2023/07/09 05:48:27;;;;;;;1999.90;999.90;;;;;;;31.24;90.14;95882.75;5104326;28;20196;-46
2023/07/09 05:50:54;;;;;;;1999.90;999.90;;;;;;;31.39;87.71;95888.06;5103945;28;20176;-51
2023/07/09 05:53:21;;;;;;;1999.90;999.90;;;;;;;31.40;86.02;95887.53;5105020;28;20234;-52
2023/07/09 05:55:46;;;;;;;1999.90;999.90;;;;;;;31.26;85.51;95890.75;5104263;28;20232;-51
2023/07/09 05:58:11;;;;;;;1999.90;999.90;;;;;;;31.17;84.92;95883.34;5104448;28;20168;-51
2023/07/09 06:00:37;;;;;;;1999.90;999.90;;;;;;;31.95;80.97;95895.44;5103672;28;20224;-50
2023/07/09 06:03:07;;;;;;;1999.90;999.90;;;;;;;31.93;82.42;95889.53;5104061;28;20187;-50
2023/07/09 06:05:32;;;;;;;1999.90;999.90;;;;;;;32.35;79.84;95891.59;5104724;28;20169;-49
2023/07/09 06:07:58;;;;;;;1999.90;999.90;;;;;;;32.76;77.40;95894.84;5104492;28;20164;-47
2023/07/09 06:10:23;;;;;;;1999.90;999.90;;;;;;;32.91;75.79;95889.50;5104333;28;20168;-48
2023/07/09 06:12:49;;;;;;;1999.90;999.90;;;;;;;33.12;73.76;95892.50;5104610;28;20199;-47
2023/07/09 06:15:14;;;;;;;1999.90;999.90;;;;;;;33.84;69.85;95895.63;5104146;28;20172;-52
2023/07/09 06:17:39;;;;;;;1999.90;999.90;;;;;;;33.94;68.80;95895.19;5104011;28;20165;-51
2023/07/09 06:20:05;;;;;;;1999.90;999.90;;;;;;;34.36;66.26;95905.44;5104136;28;20172;-51
2023/07/09 06:22:31;;;;;;;1999.90;999.90;;;;;;;34.42;63.65;95904.00;5103880;28;20168;-50
2023/07/09 06:24:56;;;;;;;1999.90;999.90;;;;;;;34.76;63.37;95909.69;5103973;28;20169;-52
2023/07/09 06:27:21;;;;;;;1999.90;999.90;;;;;;;34.48;62.16;95901.06;5104487;28;20165;-51
2023/07/09 06:29:47;;;;;;;1999.90;999.90;;;;;;;34.80;61.08;95905.22;5103744;28;20179;-52
2023/07/09 06:32:12;;;;;;;1999.90;999.90;;;;;;;35.56;58.82;95901.81;5103409;28;20164;-50
2023/07/09 06:34:37;;;;;;;1999.90;999.90;;;;;;;35.68;57.20;95907.97;5103961;28;20236;-51
2023/07/09 06:37:04;;;;;;;1999.90;999.90;;;;;;;35.87;56.77;95902.84;5103806;28;20202;-48
2023/07/09 06:39:30;;;;;;;1999.90;999.90;;;;;;;35.66;57.07;95905.69;5103831;28;20244;-53
2023/07/09 06:41:55;;;;;;;1999.90;999.90;;;;;;;35.69;56.57;95898.13;5103560;28;20168;-54
2023/07/09 06:44:21;;;;;;;1999.90;999.90;;;;;;;35.49;57.33;95901.75;5104076;28;20179;-52
2023/07/09 06:46:47;;;;;;;1999.90;999.90;;;;;;;36.17;54.45;95903.78;5103776;28;20211;-52
2023/07/09 06:49:13;;;;;;;1999.90;999.90;;;;;;;36.35;54.35;95891.34;5103667;28;20222;-51
2023/07/09 06:51:39;;;;;;;1999.90;999.90;;;;;;;36.43;53.23;95892.19;5104371;28;20232;-53
2023/07/09 06:54:04;;;;;;;1999.90;999.90;;;;;;;36.61;54.42;95901.72;5103455;28;20197;-53
2023/07/09 06:56:31;;;;;;;1999.90;999.90;;;;;;;37.03;52.34;95897.31;5106158;28;20172;-50
2023/07/09 06:58:56;;;;;;;1999.90;999.90;;;;;;;36.87;51.82;95910.00;5107340;28;20188;-53
2023/07/09 07:01:22;;;;;;;1999.90;999.90;;;;;;;37.99;47.42;95900.81;5107868;28;20326;-49
2023/07/09 07:03:47;;;;;;;1999.90;999.90;;;;;;;38.40;45.56;95897.47;5107346;28;20210;-52
2023/07/09 07:06:13;;;;;;;1999.90;999.90;;;;;;;38.15;45.68;95896.59;5107241;28;20173;-52
2023/07/09 07:08:38;;;;;;;1999.90;999.90;;;;;;;38.82;40.88;95894.84;5107379;28;20169;-51
2023/07/09 07:11:05;;;;;;;1999.90;999.90;;;;;;;38.71;42.30;95896.03;5107691;28;20232;-49
2023/07/09 07:13:36;;;;;;;1999.90;999.90;;;;;;;38.40;42.68;95894.63;5107184;28;20204;-49
2023/07/09 07:16:04;;;;;;;1999.90;999.90;;;;;;;39.46;40.48;95899.84;5107114;28;20168;-48
2023/07/09 07:18:29;;;;;;;1999.90;999.90;;;;;;;39.10;41.99;95895.28;5107659;28;20173;-49
2023/07/09 07:20:54;;;;;;;1999.90;999.90;;;;;;;38.43;41.56;95895.56;5106982;28;20179;-50
2023/07/09 07:23:20;;;;;;;1999.90;999.90;;;;;;;38.74;42.83;95891.28;5107082;28;20169;-51
2023/07/09 07:25:46;;;;;;;1999.90;999.90;;;;;;;39.28;41.20;95890.38;5107055;28;20231;-50
2023/07/09 07:28:11;;;;;;;1999.90;999.90;;;;;;;39.28;40.32;95891.16;5106922;28;20179;-49
2023/07/09 07:30:37;;;;;;;1999.90;999.90;;;;;;;39.62;40.64;95889.78;5106833;28;20200;-54
2023/07/09 07:33:02;;;;;;;1999.90;999.90;;;;;;;39.92;38.42;95892.38;5107301;28;20212;-53
2023/07/09 07:35:28;;;;;;;1999.90;999.90;;;;;;;40.33;38.40;95895.22;5106852;28;20169;-56
2023/07/09 07:37:53;;;;;;;1999.90;999.90;;;;;;;40.55;37.21;95893.44;5107146;28;20217;-53
2023/07/09 07:40:18;;;;;;;1999.90;999.90;;;;;;;40.96;36.49;95895.44;5106585;28;20168;-53
2023/07/09 07:42:44;;;;;;;1999.90;999.90;;;;;;;40.81;35.82;95892.75;5107203;28;20172;-53
2023/07/09 07:45:09;;;;;;;1999.90;999.90;;;;;;;40.57;37.27;95885.78;5107107;28;20168;-51
2023/07/09 07:47:35;;;;;;;1999.90;999.90;;;;;;;41.64;33.71;95886.56;5106744;28;20168;-53
2023/07/09 07:50:00;;;;;;;1999.90;999.90;;;;;;;40.93;35.75;95883.00;5107005;28;20192;-51
2023/07/09 07:52:27;;;;;;;1999.90;999.90;;;;;;;41.82;33.51;95882.25;5106403;28;20174;-53
2023/07/09 07:54:53;;;;;;;1999.90;999.90;;;;;;;41.09;35.29;95880.72;5106984;28;20168;-52
2023/07/09 07:57:19;;;;;;;1999.90;999.90;;;;;;;41.12;35.58;95883.16;5106885;28;20173;-49
2023/07/09 07:59:46;;;;;;;1999.90;999.90;;;;;;;41.85;33.48;95869.59;5106374;28;20231;-54
2023/07/09 08:02:13;;;;;;;1999.90;999.90;;;;;;;41.02;35.73;95879.47;5106711;28;20173;-51
2023/07/09 08:04:40;;;;;;;1999.90;999.90;;;;;;;41.34;34.58;95869.81;5106816;28;20176;-50
2023/07/09 08:07:07;;;;;;;1999.90;999.90;;;;;;;41.29;34.89;95874.47;5105581;28;20175;-49
2023/07/09 08:09:33;;;;;;;1999.90;999.90;;;;;;;41.25;35.39;95873.44;5105801;28;20175;-54
2023/07/09 08:11:58;;;;;;;1999.90;999.90;;;;;;;41.69;33.72;95871.19;5106082;28;20193;-53
2023/07/09 08:14:24;;;;;;;1999.90;999.90;;;;;;;42.24;31.94;95868.28;5106615;28;20200;-54
2023/07/09 08:16:49;;;;;;;1999.90;999.90;;;;;;;42.22;32.72;95871.00;5106064;28;20172;-52
2023/07/09 08:19:19;;;;;;;1999.90;999.90;;;;;;;42.28;31.40;95871.50;5105945;28;20173;-52
2023/07/09 08:21:45;;;;;;;1999.90;999.90;;;;;;;41.24;32.82;95871.88;5105933;28;20168;-54
2023/07/09 08:24:14;;;;;;;1999.90;999.90;;;;;;;40.63;32.01;95866.22;5105915;28;20168;-53
2023/07/09 08:26:39;;;;;;;1999.90;999.90;;;;;;;41.08;31.86;95876.34;5106649;28;20252;-54
2023/07/09 08:29:05;;;;;;;1999.90;999.90;;;;;;;41.64;31.40;95867.25;5105708;28;20169;-48
2023/07/09 08:31:30;;;;;;;1999.90;999.90;;;;;;;42.10;31.69;95870.09;5106490;28;20168;-53
2023/07/09 08:33:56;;;;;;;1999.90;999.90;;;;;;;42.45;29.01;95870.59;5105508;28;20196;-52
2023/07/09 08:36:21;;;;;;;1999.90;999.90;;;;;;;43.23;27.67;95868.53;5106340;28;20170;-53
2023/07/09 08:38:46;;;;;;;1999.90;999.90;;;;;;;42.94;27.04;95862.06;5106071;28;20171;-51
2023/07/09 08:41:28;;;;;;;1999.90;999.90;;;;;;;42.79;26.26;95868.16;5105757;28;20169;-51
2023/07/09 08:44:20;;;;;;;1999.90;999.90;;;;;;;41.85;26.83;95860.97;5105805;28;20168;-53
2023/07/09 08:47:06;;;;;;;1999.90;999.90;;;;;;;42.11;27.03;95865.84;5105671;28;20168;-53
2023/07/09 08:49:45;;;;;;;1999.90;999.90;;;;;;;43.10;27.19;95856.75;5105959;28;20242;-54
2023/07/09 08:52:30;;;;;;;1999.90;999.90;;;;;;;41.12;28.15;95865.19;5105475;28;20160;-54
2023/07/09 08:54:59;;;;;;;1999.90;999.90;;;;;;;40.51;28.66;95865.22;5105887;28;20172;-54
2023/07/09 08:57:27;;;;;;;1999.90;999.90;;;;;;;39.78;29.63;95865.38;5105605;28;20165;-52
2023/07/09 09:00:00;;;;;;;1999.90;999.90;;;;;;;39.77;30.94;95856.06;5104934;28;20209;-50
2023/07/09 09:02:59;;;;;;;1999.90;999.90;;;;;;;41.12;29.08;95859.47;5105654;28;20190;-52
2023/07/09 09:05:24;;;;;;;1999.90;999.90;;;;;;;40.97;29.42;95860.41;5090209;28;20177;-53
2023/07/09 09:08:03;;;;;;;1999.90;999.90;;;;;;;41.06;27.42;95862.59;5105298;28;20184;-53
2023/07/09 09:10:57;;;;;;;1999.90;999.90;;;;;;;39.53;28.86;95861.78;5105432;28;20199;-50
2023/07/09 09:13:27;;;;;;;1999.90;999.90;;;;;;;41.17;27.91;95867.03;5102419;28;20216;-52
2023/07/09 09:16:00;;;;;;;1999.90;999.90;;;;;;;41.99;28.26;95850.56;5104819;28;20176;-53
2023/07/09 09:18:28;;;;;;;1999.90;999.90;;;;;;;42.99;26.82;95855.25;5105069;28;20164;-55
2023/07/09 09:21:23;;;;;;;1999.90;999.90;;;;;;;43.21;25.78;95853.97;5104724;28;20244;-53
2023/07/09 09:23:55;;;;;;;1999.90;999.90;;;;;;;42.11;25.17;95860.09;5105502;28;20168;-52
2023/07/09 09:26:28;;;;;;;1999.90;999.90;;;;;;;42.12;25.82;95861.59;5105249;28;20157;-54
2023/07/09 09:28:53;;;;;;;1999.90;999.90;;;;;;;42.59;26.21;95860.88;5104285;28;20169;-53
2023/07/09 09:31:19;;;;;;;1999.90;999.90;;;;;;;42.54;26.40;95856.22;5105026;28;20247;-49
2023/07/09 09:33:47;;;;;;;1999.90;999.90;;;;;;;41.53;25.68;95862.06;5104427;28;20216;-51
2023/07/09 09:36:20;;;;;;;1999.90;999.90;;;;;;;40.47;27.72;95858.38;5104524;28;20263;-54
2023/07/09 09:38:46;;;;;;;1999.90;999.90;;;;;;;38.90;30.81;95859.19;5104326;28;20164;-52
2023/07/09 09:41:16;;;;;;;1999.90;999.90;;;;;;;39.54;29.38;95854.75;5104856;28;20222;-52
2023/07/09 09:43:45;;;;;;;1999.90;999.90;;;;;;;39.08;29.83;95860.03;5104502;28;20196;-51
2023/07/09 09:46:17;;;;;;;1999.90;999.90;;;;;;;39.77;29.78;95858.16;5104103;28;20165;-54
2023/07/09 09:48:45;;;;;;;1999.90;999.90;;;;;;;40.88;27.44;95854.59;5104597;28;20165;-49
2023/07/09 09:51:12;;;;;;;1999.90;999.90;;;;;;;41.35;27.15;95859.84;5104815;28;20196;-54
2023/07/09 09:53:40;;;;;;;1999.90;999.90;;;;;;;41.64;26.73;95855.75;5104425;28;20241;-50
2023/07/09 09:56:14;;;;;;;1999.90;999.90;;;;;;;41.59;26.72;95856.06;5104797;28;20168;-52
2023/07/09 09:58:41;;;;;;;1999.90;999.90;;;;;;;42.71;25.70;95853.16;5104488;28;20276;-53
2023/07/09 10:01:15;;;;;;;1999.90;999.90;;;;;;;41.86;26.73;95856.00;5104196;28;20204;-53
2023/07/09 10:03:41;;;;;;;1999.90;999.90;;;;;;;38.51;29.49;95865.66;5104681;28;20179;-49
2023/07/09 10:06:32;;;;;;;1999.90;999.90;;;;;;;38.11;29.97;95847.69;5104357;28;20168;-48
2023/07/09 10:09:16;;;;;;;1999.90;999.90;;;;;;;40.03;28.22;95857.53;5104117;28;20176;-55
2023/07/09 10:11:45;;;;;;;1999.90;999.90;;;;;;;38.98;29.97;95851.34;5103741;28;20172;-52
2023/07/09 10:14:32;;;;;;;1999.90;999.90;;;;;;;38.39;31.28;95847.41;5103870;28;20196;-52
2023/07/09 10:17:05;;;;;;;1999.90;999.90;;;;;;;37.99;32.33;95842.94;5103895;28;20178;-53
2023/07/09 10:19:49;;;;;;;1999.90;999.90;;;;;;;37.62;33.92;95838.84;5104264;28;20168;-50
2023/07/09 10:22:28;;;;;;;1999.90;999.90;;;;;;;37.03;35.31;95837.44;5104333;28;20160;-54
2023/07/09 10:25:24;;;;;;;1999.90;999.90;;;;;;;35.09;39.61;95844.34;5103705;28;20178;-51
2023/07/09 10:28:16;;;;;;;1999.90;999.90;;;;;;;34.27;42.36;95843.44;5097500;28;20187;-51
2023/07/09 10:30:58;;;;;;;1999.90;999.90;;;;;;;34.11;45.07;95847.41;5104391;28;20176;-53
2023/07/09 10:34:01;;;;;;;1999.90;999.90;;;;;;;34.66;43.22;95837.66;5107946;28;20275;-53
2023/07/09 10:36:48;;;;;;;1999.90;999.90;;;;;;;35.25;40.29;95845.25;5107629;28;20187;-53
2023/07/09 10:39:24;;;;;;;1999.90;999.90;;;;;;;34.60;42.55;95837.03;5108411;28;20235;-54
2023/07/09 10:41:55;;;;;;;1999.90;999.90;;;;;;;36.57;38.79;95839.44;5108248;28;20164;-52
2023/07/09 10:44:41;;;;;;;1999.90;999.90;;;;;;;38.01;34.66;95841.03;5108237;28;20244;-52
2023/07/09 10:47:21;;;;;;;1999.90;999.90;;;;;;;38.99;33.07;95837.78;5108206;28;20169;-54
2023/07/09 10:49:49;;;;;;;1999.90;999.90;;;;;;;39.51;31.72;95841.63;5107443;28;20199;-49
2023/07/09 10:52:17;;;;;;;1999.90;999.90;;;;;;;39.61;30.58;95843.22;5108043;28;20168;-51
2023/07/09 10:55:05;;;;;;;1999.90;999.90;;;;;;;39.94;30.11;95843.91;5108143;28;20212;-52